Pagrindinis puslapis
METAR-TAF:

METAR-TAF

Oro uostai :

Capo Bellavista

Tortoli, Italija

platuma: 39-56N, ilguma: 009-43E, Aukštis: 138 m

Dabartinis oras

Ataskaita buvo paskelbta 45 minutes, ne 03:55 UTC
Vėjas 20 kt iš Šiaurės Vakarų
Temperatūra 10°C
Drėgmė 62%
Slėgis 1023 hPa
Matomumas 10 km arba daugiau
nėra debesų žemiau 1500 m ir nėra kamuolinių lietaus debesų

METAR: LIEB 180355Z 31020KT CAVOK 10/03 Q1023 RMK SKC QUK / QUL / VIS MAR 20 KM MON INVIS VIS MIN 9999

Laikas: 05:40 (04:40 UTC)


TAF: trūkstamas

Orai ataskaitas ir orų prognozės (METAR, TAF).

turimą stotys yra geltonos ir raudonos taškus žemėlapyje.

Perkelti pele per norėdami pamatyti stoties vardą.

Tada spustelėkite, norėdami matyti oro stebėjimo ir prognozės.

Norėdami pakeisti žemėlapį: spustelėkite ant žalios mygtukų su juodo kryžiaus žemyn,; žalią mygtuką su brūkšneliu, jei norite nutolinti; arba žalių rodyklių gretimoms žemėlapius.


METAR-TAF: